sensor_id;sensor_type;location;lat;lon;timestamp;P1;durP1;ratioP1;P2;durP2;ratioP2
30539;SDS011;17321;46.312;4.776;2024-02-21T00:02:22;12.52;;;4.53;;
30539;SDS011;17321;46.312;4.776;2024-02-21T00:04:48;11.20;;;4.82;;
30539;SDS011;17321;46.312;4.776;2024-02-21T00:07:14;13.20;;;4.80;;
30539;SDS011;17321;46.312;4.776;2024-02-21T00:09:40;9.45;;;4.30;;
30539;SDS011;17321;46.312;4.776;2024-02-21T00:12:06;13.60;;;4.88;;
30539;SDS011;17321;46.312;4.776;2024-02-21T00:14:33;7.00;;;4.53;;
30539;SDS011;17321;46.312;4.776;2024-02-21T00:16:59;11.15;;;4.10;;
30539;SDS011;17321;46.312;4.776;2024-02-21T00:19:25;13.52;;;4.28;;
30539;SDS011;17321;46.312;4.776;2024-02-21T00:21:51;9.50;;;4.03;;
30539;SDS011;17321;46.312;4.776;2024-02-21T00:24:16;8.10;;;3.80;;
30539;SDS011;17321;46.312;4.776;2024-02-21T00:26:42;12.48;;;3.67;;
30539;SDS011;17321;46.312;4.776;2024-02-21T00:29:08;18.25;;;4.78;;
30539;SDS011;17321;46.312;4.776;2024-02-21T00:31:34;9.95;;;4.25;;
30539;SDS011;17321;46.312;4.776;2024-02-21T00:34:00;10.88;;;3.63;;
30539;SDS011;17321;46.312;4.776;2024-02-21T00:36:26;9.52;;;3.67;;
30539;SDS011;17321;46.312;4.776;2024-02-21T00:38:52;15.93;;;4.72;;
30539;SDS011;17321;46.312;4.776;2024-02-21T00:41:18;14.75;;;3.72;;
30539;SDS011;17321;46.312;4.776;2024-02-21T00:43:44;11.05;;;3.45;;
30539;SDS011;17321;46.312;4.776;2024-02-21T00:46:11;10.13;;;4.03;;
30539;SDS011;17321;46.312;4.776;2024-02-21T00:48:37;9.02;;;3.60;;
30539;SDS011;17321;46.312;4.776;2024-02-21T00:51:03;11.05;;;3.00;;
30539;SDS011;17321;46.312;4.776;2024-02-21T00:53:29;8.65;;;3.92;;
30539;SDS011;17321;46.312;4.776;2024-02-21T00:55:55;9.43;;;3.25;;
30539;SDS011;17321;46.312;4.776;2024-02-21T00:58:22;10.88;;;4.07;;
30539;SDS011;17321;46.312;4.776;2024-02-21T01:00:48;11.40;;;3.83;;
30539;SDS011;17321;46.312;4.776;2024-02-21T01:03:14;13.38;;;3.65;;
30539;SDS011;17321;46.312;4.776;2024-02-21T01:05:40;8.85;;;3.38;;
30539;SDS011;17321;46.312;4.776;2024-02-21T01:08:06;9.25;;;3.83;;
30539;SDS011;17321;46.312;4.776;2024-02-21T01:10:32;7.07;;;3.13;;
30539;SDS011;17321;46.312;4.776;2024-02-21T01:12:58;10.07;;;3.58;;
30539;SDS011;17321;46.312;4.776;2024-02-21T01:15:24;8.80;;;3.67;;
30539;SDS011;17321;46.312;4.776;2024-02-21T01:17:50;7.13;;;3.42;;
30539;SDS011;17321;46.312;4.776;2024-02-21T01:20:19;13.82;;;3.78;;
30539;SDS011;17321;46.312;4.776;2024-02-21T01:22:46;11.35;;;3.38;;
30539;SDS011;17321;46.312;4.776;2024-02-21T01:25:12;13.90;;;4.20;;
30539;SDS011;17321;46.312;4.776;2024-02-21T01:27:38;14.50;;;4.18;;
30539;SDS011;17321;46.312;4.776;2024-02-21T01:30:04;10.88;;;4.65;;
30539;SDS011;17321;46.312;4.776;2024-02-21T01:32:30;19.40;;;8.73;;
30539;SDS011;17321;46.312;4.776;2024-02-21T01:34:57;20.95;;;8.63;;
30539;SDS011;17321;46.312;4.776;2024-02-21T01:37:23;18.38;;;6.35;;
30539;SDS011;17321;46.312;4.776;2024-02-21T01:39:49;12.40;;;4.45;;
30539;SDS011;17321;46.312;4.776;2024-02-21T01:42:15;8.63;;;4.63;;
30539;SDS011;17321;46.312;4.776;2024-02-21T01:44:41;9.95;;;4.55;;
30539;SDS011;17321;46.312;4.776;2024-02-21T01:47:07;11.18;;;4.63;;
30539;SDS011;17321;46.312;4.776;2024-02-21T01:49:34;10.25;;;5.05;;
30539;SDS011;17321;46.312;4.776;2024-02-21T01:52:00;15.15;;;5.07;;
30539;SDS011;17321;46.312;4.776;2024-02-21T01:54:27;11.82;;;4.97;;
30539;SDS011;17321;46.312;4.776;2024-02-21T01:56:53;9.43;;;4.80;;
30539;SDS011;17321;46.312;4.776;2024-02-21T01:59:19;10.93;;;4.05;;
30539;SDS011;17321;46.312;4.776;2024-02-21T02:01:47;10.13;;;4.05;;
30539;SDS011;17321;46.312;4.776;2024-02-21T02:04:13;10.18;;;4.38;;
30539;SDS011;17321;46.312;4.776;2024-02-21T02:06:39;8.55;;;4.60;;
30539;SDS011;17321;46.312;4.776;2024-02-21T02:09:06;7.95;;;3.20;;
30539;SDS011;17321;46.312;4.776;2024-02-21T02:11:32;14.60;;;4.18;;
30539;SDS011;17321;46.312;4.776;2024-02-21T02:13:58;10.70;;;3.95;;
30539;SDS011;17321;46.312;4.776;2024-02-21T02:16:24;11.70;;;4.70;;
30539;SDS011;17321;46.312;4.776;2024-02-21T02:18:50;8.88;;;4.68;;
30539;SDS011;17321;46.312;4.776;2024-02-21T02:21:23;16.75;;;5.32;;
30539;SDS011;17321;46.312;4.776;2024-02-21T02:23:49;14.95;;;6.35;;
30539;SDS011;17321;46.312;4.776;2024-02-21T02:26:15;14.00;;;6.63;;
30539;SDS011;17321;46.312;4.776;2024-02-21T02:28:41;12.00;;;5.35;;
30539;SDS011;17321;46.312;4.776;2024-02-21T02:31:07;9.93;;;4.63;;
30539;SDS011;17321;46.312;4.776;2024-02-21T02:33:33;8.55;;;4.72;;
30539;SDS011;17321;46.312;4.776;2024-02-21T02:35:59;8.45;;;4.70;;
30539;SDS011;17321;46.312;4.776;2024-02-21T02:38:25;11.38;;;5.05;;
30539;SDS011;17321;46.312;4.776;2024-02-21T02:40:51;10.52;;;5.00;;
30539;SDS011;17321;46.312;4.776;2024-02-21T02:43:17;15.07;;;5.25;;
30539;SDS011;17321;46.312;4.776;2024-02-21T02:45:43;13.82;;;5.00;;
30539;SDS011;17321;46.312;4.776;2024-02-21T02:48:09;13.60;;;4.30;;
30539;SDS011;17321;46.312;4.776;2024-02-21T02:50:35;10.73;;;4.93;;
30539;SDS011;17321;46.312;4.776;2024-02-21T02:53:01;10.95;;;4.57;;
30539;SDS011;17321;46.312;4.776;2024-02-21T02:55:27;13.10;;;4.72;;
30539;SDS011;17321;46.312;4.776;2024-02-21T02:57:53;7.13;;;3.80;;
30539;SDS011;17321;46.312;4.776;2024-02-21T03:00:20;11.05;;;4.30;;
30539;SDS011;17321;46.312;4.776;2024-02-21T03:02:48;11.80;;;4.32;;
30539;SDS011;17321;46.312;4.776;2024-02-21T03:05:17;9.07;;;4.00;;
30539;SDS011;17321;46.312;4.776;2024-02-21T03:07:44;10.45;;;4.05;;
30539;SDS011;17321;46.312;4.776;2024-02-21T03:10:10;12.00;;;4.18;;
30539;SDS011;17321;46.312;4.776;2024-02-21T03:12:36;10.65;;;3.85;;
30539;SDS011;17321;46.312;4.776;2024-02-21T03:15:03;5.40;;;3.50;;
30539;SDS011;17321;46.312;4.776;2024-02-21T03:17:29;10.23;;;3.60;;
30539;SDS011;17321;46.312;4.776;2024-02-21T03:19:56;8.20;;;3.10;;
30539;SDS011;17321;46.312;4.776;2024-02-21T03:22:22;6.43;;;3.28;;
30539;SDS011;17321;46.312;4.776;2024-02-21T03:24:49;9.80;;;3.38;;
30539;SDS011;17321;46.312;4.776;2024-02-21T03:27:15;7.65;;;3.25;;
30539;SDS011;17321;46.312;4.776;2024-02-21T03:29:41;10.50;;;3.40;;
30539;SDS011;17321;46.312;4.776;2024-02-21T03:32:07;8.70;;;3.35;;
30539;SDS011;17321;46.312;4.776;2024-02-21T03:34:33;10.70;;;3.50;;
30539;SDS011;17321;46.312;4.776;2024-02-21T03:36:59;7.80;;;2.83;;
30539;SDS011;17321;46.312;4.776;2024-02-21T03:39:25;5.50;;;3.35;;
30539;SDS011;17321;46.312;4.776;2024-02-21T03:41:51;10.98;;;3.75;;
30539;SDS011;17321;46.312;4.776;2024-02-21T03:44:17;12.63;;;3.75;;
30539;SDS011;17321;46.312;4.776;2024-02-21T03:46:43;4.95;;;2.63;;
30539;SDS011;17321;46.312;4.776;2024-02-21T03:49:09;6.70;;;2.90;;
30539;SDS011;17321;46.312;4.776;2024-02-21T03:51:35;12.00;;;2.75;;
30539;SDS011;17321;46.312;4.776;2024-02-21T03:54:01;8.35;;;3.03;;
30539;SDS011;17321;46.312;4.776;2024-02-21T03:56:27;8.02;;;3.30;;
30539;SDS011;17321;46.312;4.776;2024-02-21T03:58:53;6.20;;;3.05;;
30539;SDS011;17321;46.312;4.776;2024-02-21T04:01:20;6.95;;;3.10;;
30539;SDS011;17321;46.312;4.776;2024-02-21T04:03:46;7.10;;;2.92;;
30539;SDS011;17321;46.312;4.776;2024-02-21T04:06:12;8.23;;;3.08;;
30539;SDS011;17321;46.312;4.776;2024-02-21T04:08:38;10.35;;;4.05;;
30539;SDS011;17321;46.312;4.776;2024-02-21T04:11:04;11.13;;;3.95;;
30539;SDS011;17321;46.312;4.776;2024-02-21T04:13:30;6.78;;;3.63;;
30539;SDS011;17321;46.312;4.776;2024-02-21T04:15:56;5.03;;;3.00;;
30539;SDS011;17321;46.312;4.776;2024-02-21T04:18:22;11.38;;;3.60;;
30539;SDS011;17321;46.312;4.776;2024-02-21T04:20:48;9.48;;;3.28;;
30539;SDS011;17321;46.312;4.776;2024-02-21T04:23:14;9.10;;;3.38;;
30539;SDS011;17321;46.312;4.776;2024-02-21T04:25:40;9.45;;;3.85;;
30539;SDS011;17321;46.312;4.776;2024-02-21T04:28:06;6.18;;;3.28;;
30539;SDS011;17321;46.312;4.776;2024-02-21T04:30:32;12.45;;;3.85;;
30539;SDS011;17321;46.312;4.776;2024-02-21T04:32:58;6.78;;;2.78;;
30539;SDS011;17321;46.312;4.776;2024-02-21T04:35:24;5.57;;;2.65;;
30539;SDS011;17321;46.312;4.776;2024-02-21T04:37:50;7.72;;;2.97;;
30539;SDS011;17321;46.312;4.776;2024-02-21T04:40:16;9.05;;;3.30;;
30539;SDS011;17321;46.312;4.776;2024-02-21T04:42:42;5.32;;;2.90;;
30539;SDS011;17321;46.312;4.776;2024-02-21T04:45:08;8.25;;;2.60;;
30539;SDS011;17321;46.312;4.776;2024-02-21T04:47:35;10.55;;;3.55;;
30539;SDS011;17321;46.312;4.776;2024-02-21T04:50:01;10.57;;;4.03;;
30539;SDS011;17321;46.312;4.776;2024-02-21T04:52:27;8.30;;;3.60;;
30539;SDS011;17321;46.312;4.776;2024-02-21T04:54:53;7.53;;;3.20;;
30539;SDS011;17321;46.312;4.776;2024-02-21T04:57:19;10.07;;;2.90;;
30539;SDS011;17321;46.312;4.776;2024-02-21T04:59:45;7.00;;;2.80;;
30539;SDS011;17321;46.312;4.776;2024-02-21T05:02:12;7.85;;;3.28;;
30539;SDS011;17321;46.312;4.776;2024-02-21T05:04:38;11.15;;;2.95;;
30539;SDS011;17321;46.312;4.776;2024-02-21T05:07:06;10.70;;;2.58;;
30539;SDS011;17321;46.312;4.776;2024-02-21T05:09:32;8.88;;;3.20;;
30539;SDS011;17321;46.312;4.776;2024-02-21T05:11:58;9.85;;;3.90;;
30539;SDS011;17321;46.312;4.776;2024-02-21T05:14:25;10.65;;;3.88;;
30539;SDS011;17321;46.312;4.776;2024-02-21T05:16:51;7.50;;;3.33;;
30539;SDS011;17321;46.312;4.776;2024-02-21T05:19:17;11.93;;;4.22;;
30539;SDS011;17321;46.312;4.776;2024-02-21T05:21:44;8.40;;;3.63;;
30539;SDS011;17321;46.312;4.776;2024-02-21T05:24:10;4.85;;;3.38;;
30539;SDS011;17321;46.312;4.776;2024-02-21T05:26:36;6.25;;;2.70;;
30539;SDS011;17321;46.312;4.776;2024-02-21T05:29:02;8.65;;;3.25;;
30539;SDS011;17321;46.312;4.776;2024-02-21T05:32:14;8.43;;;3.72;;
30539;SDS011;17321;46.312;4.776;2024-02-21T05:34:15;7.85;;;2.83;;
30539;SDS011;17321;46.312;4.776;2024-02-21T05:36:41;12.65;;;3.63;;
30539;SDS011;17321;46.312;4.776;2024-02-21T05:39:07;10.25;;;3.90;;
30539;SDS011;17321;46.312;4.776;2024-02-21T05:41:33;14.35;;;6.03;;
30539;SDS011;17321;46.312;4.776;2024-02-21T05:43:59;10.35;;;5.30;;
30539;SDS011;17321;46.312;4.776;2024-02-21T05:46:25;15.75;;;6.30;;
30539;SDS011;17321;46.312;4.776;2024-02-21T05:48:51;16.33;;;6.40;;
30539;SDS011;17321;46.312;4.776;2024-02-21T05:51:17;9.48;;;5.20;;
30539;SDS011;17321;46.312;4.776;2024-02-21T05:53:43;11.80;;;5.60;;
30539;SDS011;17321;46.312;4.776;2024-02-21T05:56:12;9.85;;;5.18;;
30539;SDS011;17321;46.312;4.776;2024-02-21T05:58:38;10.60;;;4.60;;
30539;SDS011;17321;46.312;4.776;2024-02-21T06:01:04;12.65;;;5.78;;
30539;SDS011;17321;46.312;4.776;2024-02-21T06:03:32;11.25;;;4.70;;
30539;SDS011;17321;46.312;4.776;2024-02-21T06:05:58;9.45;;;5.00;;
30539;SDS011;17321;46.312;4.776;2024-02-21T06:08:24;16.15;;;5.22;;
30539;SDS011;17321;46.312;4.776;2024-02-21T06:10:50;16.08;;;5.55;;
30539;SDS011;17321;46.312;4.776;2024-02-21T06:13:20;11.90;;;5.22;;
30539;SDS011;17321;46.312;4.776;2024-02-21T06:15:49;11.65;;;5.03;;
30539;SDS011;17321;46.312;4.776;2024-02-21T06:18:15;11.50;;;4.93;;
30539;SDS011;17321;46.312;4.776;2024-02-21T06:20:41;9.48;;;4.40;;
30539;SDS011;17321;46.312;4.776;2024-02-21T06:23:08;11.40;;;4.72;;
30539;SDS011;17321;46.312;4.776;2024-02-21T06:25:34;15.15;;;5.20;;
30539;SDS011;17321;46.312;4.776;2024-02-21T06:28:00;13.98;;;4.63;;
30539;SDS011;17321;46.312;4.776;2024-02-21T06:30:26;11.07;;;6.00;;
30539;SDS011;17321;46.312;4.776;2024-02-21T06:32:52;13.70;;;7.13;;
30539;SDS011;17321;46.312;4.776;2024-02-21T06:35:21;17.15;;;7.38;;
30539;SDS011;17321;46.312;4.776;2024-02-21T06:37:47;17.02;;;7.07;;
30539;SDS011;17321;46.312;4.776;2024-02-21T06:40:16;14.13;;;6.45;;
30539;SDS011;17321;46.312;4.776;2024-02-21T06:42:42;16.83;;;6.20;;
30539;SDS011;17321;46.312;4.776;2024-02-21T06:45:08;14.75;;;5.80;;
30539;SDS011;17321;46.312;4.776;2024-02-21T06:47:34;11.20;;;5.22;;
30539;SDS011;17321;46.312;4.776;2024-02-21T06:50:00;16.23;;;5.68;;
30539;SDS011;17321;46.312;4.776;2024-02-21T06:52:26;10.43;;;5.70;;
30539;SDS011;17321;46.312;4.776;2024-02-21T06:54:53;16.67;;;5.72;;
30539;SDS011;17321;46.312;4.776;2024-02-21T06:57:19;14.50;;;5.78;;
30539;SDS011;17321;46.312;4.776;2024-02-21T06:59:45;13.57;;;4.97;;
30539;SDS011;17321;46.312;4.776;2024-02-21T07:02:11;12.25;;;5.85;;
30539;SDS011;17321;46.312;4.776;2024-02-21T07:04:37;12.63;;;5.13;;
30539;SDS011;17321;46.312;4.776;2024-02-21T07:07:03;7.68;;;4.55;;
30539;SDS011;17321;46.312;4.776;2024-02-21T07:09:29;11.50;;;5.72;;
30539;SDS011;17321;46.312;4.776;2024-02-21T07:11:57;15.57;;;7.05;;
30539;SDS011;17321;46.312;4.776;2024-02-21T07:14:23;11.25;;;5.55;;
30539;SDS011;17321;46.312;4.776;2024-02-21T07:16:49;14.60;;;5.47;;
30539;SDS011;17321;46.312;4.776;2024-02-21T07:19:15;14.93;;;6.55;;
30539;SDS011;17321;46.312;4.776;2024-02-21T07:21:41;15.60;;;6.38;;
30539;SDS011;17321;46.312;4.776;2024-02-21T07:24:07;15.25;;;5.40;;
30539;SDS011;17321;46.312;4.776;2024-02-21T07:26:33;10.63;;;5.90;;
30539;SDS011;17321;46.312;4.776;2024-02-21T07:28:59;18.27;;;6.18;;
30539;SDS011;17321;46.312;4.776;2024-02-21T07:31:25;20.58;;;6.35;;
30539;SDS011;17321;46.312;4.776;2024-02-21T07:33:51;14.68;;;6.53;;
30539;SDS011;17321;46.312;4.776;2024-02-21T07:36:27;17.50;;;7.05;;
30539;SDS011;17321;46.312;4.776;2024-02-21T07:38:54;13.32;;;6.53;;
30539;SDS011;17321;46.312;4.776;2024-02-21T07:41:20;12.30;;;6.07;;
30539;SDS011;17321;46.312;4.776;2024-02-21T07:43:46;16.50;;;5.78;;
30539;SDS011;17321;46.312;4.776;2024-02-21T07:46:13;12.98;;;6.28;;
30539;SDS011;17321;46.312;4.776;2024-02-21T07:48:39;13.70;;;6.00;;
30539;SDS011;17321;46.312;4.776;2024-02-21T07:51:05;13.18;;;5.25;;
30539;SDS011;17321;46.312;4.776;2024-02-21T07:53:31;12.13;;;5.93;;
30539;SDS011;17321;46.312;4.776;2024-02-21T07:55:57;14.93;;;6.50;;
30539;SDS011;17321;46.312;4.776;2024-02-21T07:58:23;16.95;;;6.57;;
30539;SDS011;17321;46.312;4.776;2024-02-21T08:00:49;14.30;;;6.20;;
30539;SDS011;17321;46.312;4.776;2024-02-21T08:03:15;22.77;;;9.30;;
30539;SDS011;17321;46.312;4.776;2024-02-21T08:05:42;18.98;;;7.78;;
30539;SDS011;17321;46.312;4.776;2024-02-21T08:08:08;19.05;;;7.55;;
30539;SDS011;17321;46.312;4.776;2024-02-21T08:10:35;16.88;;;6.85;;
30539;SDS011;17321;46.312;4.776;2024-02-21T08:13:01;12.65;;;6.40;;
30539;SDS011;17321;46.312;4.776;2024-02-21T08:15:27;13.65;;;6.60;;
30539;SDS011;17321;46.312;4.776;2024-02-21T08:17:55;14.48;;;5.47;;
30539;SDS011;17321;46.312;4.776;2024-02-21T08:20:24;13.50;;;6.13;;
30539;SDS011;17321;46.312;4.776;2024-02-21T08:22:51;12.68;;;5.43;;
30539;SDS011;17321;46.312;4.776;2024-02-21T08:25:17;14.70;;;6.13;;
30539;SDS011;17321;46.312;4.776;2024-02-21T08:27:43;14.70;;;6.35;;
30539;SDS011;17321;46.312;4.776;2024-02-21T08:30:10;15.30;;;6.50;;
30539;SDS011;17321;46.312;4.776;2024-02-21T08:32:36;19.00;;;7.38;;
30539;SDS011;17321;46.312;4.776;2024-02-21T08:35:02;20.58;;;7.35;;
30539;SDS011;17321;46.312;4.776;2024-02-21T08:37:30;15.80;;;7.47;;
30539;SDS011;17321;46.312;4.776;2024-02-21T08:39:56;19.63;;;6.50;;
30539;SDS011;17321;46.312;4.776;2024-02-21T08:42:22;15.13;;;7.13;;
30539;SDS011;17321;46.312;4.776;2024-02-21T08:44:48;16.83;;;6.38;;
30539;SDS011;17321;46.312;4.776;2024-02-21T08:47:14;17.92;;;7.07;;
30539;SDS011;17321;46.312;4.776;2024-02-21T08:49:40;17.40;;;6.43;;
30539;SDS011;17321;46.312;4.776;2024-02-21T08:52:06;18.85;;;7.28;;
30539;SDS011;17321;46.312;4.776;2024-02-21T08:54:32;16.75;;;7.05;;
30539;SDS011;17321;46.312;4.776;2024-02-21T08:56:59;19.77;;;8.15;;
30539;SDS011;17321;46.312;4.776;2024-02-21T08:59:25;18.65;;;7.55;;
30539;SDS011;17321;46.312;4.776;2024-02-21T09:01:51;19.58;;;6.60;;
30539;SDS011;17321;46.312;4.776;2024-02-21T09:04:20;22.15;;;7.38;;
30539;SDS011;17321;46.312;4.776;2024-02-21T09:06:46;18.38;;;7.35;;
30539;SDS011;17321;46.312;4.776;2024-02-21T09:09:12;23.42;;;10.43;;
30539;SDS011;17321;46.312;4.776;2024-02-21T09:11:38;16.65;;;8.70;;
30539;SDS011;17321;46.312;4.776;2024-02-21T09:14:05;35.60;;;11.82;;
30539;SDS011;17321;46.312;4.776;2024-02-21T09:16:31;19.63;;;7.93;;
30539;SDS011;17321;46.312;4.776;2024-02-21T09:18:58;17.70;;;7.45;;
30539;SDS011;17321;46.312;4.776;2024-02-21T09:21:24;20.75;;;8.38;;
30539;SDS011;17321;46.312;4.776;2024-02-21T09:23:50;18.42;;;7.95;;
30539;SDS011;17321;46.312;4.776;2024-02-21T09:26:16;17.85;;;7.35;;
30539;SDS011;17321;46.312;4.776;2024-02-21T09:28:45;13.18;;;6.63;;
30539;SDS011;17321;46.312;4.776;2024-02-21T09:31:11;17.98;;;7.25;;
30539;SDS011;17321;46.312;4.776;2024-02-21T09:33:37;28.70;;;8.02;;
30539;SDS011;17321;46.312;4.776;2024-02-21T09:36:03;16.52;;;7.20;;
30539;SDS011;17321;46.312;4.776;2024-02-21T09:38:31;22.92;;;7.35;;
30539;SDS011;17321;46.312;4.776;2024-02-21T09:41:16;15.35;;;6.03;;
30539;SDS011;17321;46.312;4.776;2024-02-21T09:43:42;11.98;;;6.63;;
30539;SDS011;17321;46.312;4.776;2024-02-21T09:46:13;11.77;;;5.38;;
30539;SDS011;17321;46.312;4.776;2024-02-21T09:51:17;24.70;;;8.13;;
30539;SDS011;17321;46.312;4.776;2024-02-21T09:53:44;26.00;;;7.40;;
30539;SDS011;17321;46.312;4.776;2024-02-21T09:56:11;14.25;;;5.70;;
30539;SDS011;17321;46.312;4.776;2024-02-21T09:58:38;15.07;;;6.65;;
30539;SDS011;17321;46.312;4.776;2024-02-21T10:01:06;12.63;;;5.53;;
30539;SDS011;17321;46.312;4.776;2024-02-21T10:03:32;17.30;;;6.55;;
30539;SDS011;17321;46.312;4.776;2024-02-21T10:05:58;15.18;;;5.82;;
30539;SDS011;17321;46.312;4.776;2024-02-21T10:08:26;17.02;;;6.55;;
30539;SDS011;17321;46.312;4.776;2024-02-21T10:10:52;12.23;;;6.35;;
30539;SDS011;17321;46.312;4.776;2024-02-21T10:13:27;20.15;;;6.93;;
30539;SDS011;17321;46.312;4.776;2024-02-21T10:16:06;14.25;;;6.10;;
30539;SDS011;17321;46.312;4.776;2024-02-21T10:18:32;16.35;;;6.50;;
30539;SDS011;17321;46.312;4.776;2024-02-21T10:21:05;16.25;;;7.47;;
30539;SDS011;17321;46.312;4.776;2024-02-21T10:23:50;14.85;;;7.35;;
30539;SDS011;17321;46.312;4.776;2024-02-21T10:26:20;15.88;;;7.15;;
30539;SDS011;17321;46.312;4.776;2024-02-21T10:28:46;22.55;;;7.30;;
30539;SDS011;17321;46.312;4.776;2024-02-21T10:31:28;14.80;;;7.68;;
30539;SDS011;17321;46.312;4.776;2024-02-21T10:33:58;18.60;;;7.70;;
30539;SDS011;17321;46.312;4.776;2024-02-21T10:36:24;28.92;;;8.27;;
30539;SDS011;17321;46.312;4.776;2024-02-21T10:38:51;18.70;;;7.30;;
30539;SDS011;17321;46.312;4.776;2024-02-21T10:41:18;19.30;;;7.85;;
30539;SDS011;17321;46.312;4.776;2024-02-21T10:43:46;18.95;;;7.90;;
30539;SDS011;17321;46.312;4.776;2024-02-21T10:46:12;15.90;;;7.05;;
30539;SDS011;17321;46.312;4.776;2024-02-21T10:48:43;11.48;;;7.03;;
30539;SDS011;17321;46.312;4.776;2024-02-21T10:51:16;17.35;;;8.23;;
30539;SDS011;17321;46.312;4.776;2024-02-21T10:54:06;26.17;;;8.25;;
30539;SDS011;17321;46.312;4.776;2024-02-21T10:56:33;19.38;;;9.18;;
30539;SDS011;17321;46.312;4.776;2024-02-21T10:59:02;23.30;;;7.90;;
30539;SDS011;17321;46.312;4.776;2024-02-21T11:01:28;17.75;;;8.35;;
30539;SDS011;17321;46.312;4.776;2024-02-21T11:03:57;19.13;;;8.35;;
30539;SDS011;17321;46.312;4.776;2024-02-21T11:06:24;19.83;;;9.15;;
30539;SDS011;17321;46.312;4.776;2024-02-21T11:09:03;18.40;;;8.27;;
30539;SDS011;17321;46.312;4.776;2024-02-21T11:11:30;19.90;;;8.25;;
30539;SDS011;17321;46.312;4.776;2024-02-21T11:14:08;24.88;;;8.52;;
30539;SDS011;17321;46.312;4.776;2024-02-21T11:16:38;18.80;;;8.20;;
30539;SDS011;17321;46.312;4.776;2024-02-21T11:21:46;25.70;;;7.88;;
30539;SDS011;17321;46.312;4.776;2024-02-21T11:24:13;16.83;;;7.53;;
30539;SDS011;17321;46.312;4.776;2024-02-21T11:26:39;24.20;;;8.80;;
30539;SDS011;17321;46.312;4.776;2024-02-21T11:29:08;19.70;;;8.75;;
30539;SDS011;17321;46.312;4.776;2024-02-21T11:31:39;14.48;;;8.50;;
30539;SDS011;17321;46.312;4.776;2024-02-21T11:34:08;21.45;;;8.20;;
30539;SDS011;17321;46.312;4.776;2024-02-21T11:36:34;16.42;;;8.68;;
30539;SDS011;17321;46.312;4.776;2024-02-21T11:39:04;16.52;;;9.10;;
30539;SDS011;17321;46.312;4.776;2024-02-21T11:41:30;18.88;;;8.63;;
30539;SDS011;17321;46.312;4.776;2024-02-21T11:43:56;19.65;;;8.52;;
30539;SDS011;17321;46.312;4.776;2024-02-21T11:46:22;23.80;;;9.20;;
30539;SDS011;17321;46.312;4.776;2024-02-21T11:48:49;15.85;;;8.40;;
30539;SDS011;17321;46.312;4.776;2024-02-21T11:51:21;20.30;;;9.13;;
30539;SDS011;17321;46.312;4.776;2024-02-21T11:53:48;24.20;;;8.77;;
30539;SDS011;17321;46.312;4.776;2024-02-21T11:56:14;18.85;;;9.52;;
30539;SDS011;17321;46.312;4.776;2024-02-21T11:58:40;18.35;;;9.65;;
30539;SDS011;17321;46.312;4.776;2024-02-21T12:01:07;20.70;;;9.00;;
30539;SDS011;17321;46.312;4.776;2024-02-21T12:03:33;18.95;;;9.02;;
30539;SDS011;17321;46.312;4.776;2024-02-21T12:06:03;19.48;;;9.70;;
30539;SDS011;17321;46.312;4.776;2024-02-21T12:08:42;26.52;;;9.85;;
30539;SDS011;17321;46.312;4.776;2024-02-21T12:13:43;16.33;;;7.80;;
30539;SDS011;17321;46.312;4.776;2024-02-21T12:16:09;19.42;;;8.00;;
30539;SDS011;17321;46.312;4.776;2024-02-21T12:18:35;15.05;;;7.93;;
30539;SDS011;17321;46.312;4.776;2024-02-21T12:21:01;16.92;;;7.13;;
30539;SDS011;17321;46.312;4.776;2024-02-21T12:23:27;14.82;;;6.03;;
30539;SDS011;17321;46.312;4.776;2024-02-21T12:25:53;16.92;;;6.63;;
30539;SDS011;17321;46.312;4.776;2024-02-21T12:28:19;23.00;;;6.70;;
30539;SDS011;17321;46.312;4.776;2024-02-21T12:30:46;16.80;;;6.43;;
30539;SDS011;17321;46.312;4.776;2024-02-21T12:33:13;18.60;;;7.07;;
30539;SDS011;17321;46.312;4.776;2024-02-21T12:35:41;17.15;;;6.90;;
30539;SDS011;17321;46.312;4.776;2024-02-21T12:38:07;14.25;;;7.32;;
30539;SDS011;17321;46.312;4.776;2024-02-21T12:40:33;14.48;;;6.85;;
30539;SDS011;17321;46.312;4.776;2024-02-21T12:43:00;16.20;;;6.45;;
30539;SDS011;17321;46.312;4.776;2024-02-21T12:45:28;20.60;;;6.55;;
30539;SDS011;17321;46.312;4.776;2024-02-21T12:47:54;17.73;;;6.85;;
30539;SDS011;17321;46.312;4.776;2024-02-21T12:50:20;16.35;;;6.90;;
30539;SDS011;17321;46.312;4.776;2024-02-21T12:52:47;23.48;;;7.05;;
30539;SDS011;17321;46.312;4.776;2024-02-21T12:55:14;22.30;;;6.57;;
30539;SDS011;17321;46.312;4.776;2024-02-21T12:57:41;15.60;;;6.40;;
30539;SDS011;17321;46.312;4.776;2024-02-21T13:00:08;25.77;;;5.88;;
30539;SDS011;17321;46.312;4.776;2024-02-21T13:02:34;21.05;;;6.85;;
30539;SDS011;17321;46.312;4.776;2024-02-21T13:05:00;17.17;;;6.22;;
30539;SDS011;17321;46.312;4.776;2024-02-21T13:07:28;26.67;;;6.63;;
30539;SDS011;17321;46.312;4.776;2024-02-21T13:09:54;17.25;;;6.30;;
30539;SDS011;17321;46.312;4.776;2024-02-21T13:12:20;11.77;;;5.65;;
30539;SDS011;17321;46.312;4.776;2024-02-21T13:14:46;17.25;;;6.35;;
30539;SDS011;17321;46.312;4.776;2024-02-21T13:17:12;14.07;;;5.93;;
30539;SDS011;17321;46.312;4.776;2024-02-21T13:19:39;17.80;;;5.80;;
30539;SDS011;17321;46.312;4.776;2024-02-21T13:22:05;13.35;;;6.25;;
30539;SDS011;17321;46.312;4.776;2024-02-21T13:24:32;17.33;;;5.90;;
30539;SDS011;17321;46.312;4.776;2024-02-21T13:26:58;21.90;;;5.57;;
30539;SDS011;17321;46.312;4.776;2024-02-21T13:29:24;12.63;;;5.72;;
30539;SDS011;17321;46.312;4.776;2024-02-21T13:31:50;17.95;;;6.22;;
30539;SDS011;17321;46.312;4.776;2024-02-21T13:34:16;16.95;;;6.80;;
30539;SDS011;17321;46.312;4.776;2024-02-21T13:36:42;10.82;;;6.28;;
30539;SDS011;17321;46.312;4.776;2024-02-21T13:39:08;15.10;;;5.78;;
30539;SDS011;17321;46.312;4.776;2024-02-21T13:41:37;14.88;;;6.55;;
30539;SDS011;17321;46.312;4.776;2024-02-21T13:44:04;15.68;;;6.32;;
30539;SDS011;17321;46.312;4.776;2024-02-21T13:46:30;16.77;;;6.38;;
30539;SDS011;17321;46.312;4.776;2024-02-21T13:49:01;12.02;;;5.88;;
30539;SDS011;17321;46.312;4.776;2024-02-21T13:51:29;23.25;;;6.55;;
30539;SDS011;17321;46.312;4.776;2024-02-21T13:53:55;13.95;;;6.93;;
30539;SDS011;17321;46.312;4.776;2024-02-21T13:56:21;16.63;;;6.80;;
30539;SDS011;17321;46.312;4.776;2024-02-21T13:58:47;16.90;;;6.95;;
30539;SDS011;17321;46.312;4.776;2024-02-21T14:01:13;11.52;;;6.95;;
30539;SDS011;17321;46.312;4.776;2024-02-21T14:03:39;18.70;;;5.63;;
30539;SDS011;17321;46.312;4.776;2024-02-21T14:06:06;18.38;;;6.72;;
30539;SDS011;17321;46.312;4.776;2024-02-21T14:08:32;11.80;;;5.85;;
30539;SDS011;17321;46.312;4.776;2024-02-21T14:10:59;17.77;;;7.38;;
30539;SDS011;17321;46.312;4.776;2024-02-21T14:13:25;14.52;;;6.78;;
30539;SDS011;17321;46.312;4.776;2024-02-21T14:15:51;13.70;;;6.15;;
30539;SDS011;17321;46.312;4.776;2024-02-21T14:18:17;17.45;;;7.45;;
30539;SDS011;17321;46.312;4.776;2024-02-21T14:20:43;14.38;;;6.43;;
30539;SDS011;17321;46.312;4.776;2024-02-21T14:23:09;17.83;;;6.32;;
30539;SDS011;17321;46.312;4.776;2024-02-21T14:25:35;13.15;;;6.45;;
30539;SDS011;17321;46.312;4.776;2024-02-21T14:28:02;14.38;;;6.53;;
30539;SDS011;17321;46.312;4.776;2024-02-21T14:30:28;11.60;;;5.38;;
30539;SDS011;17321;46.312;4.776;2024-02-21T14:32:54;14.13;;;6.05;;
30539;SDS011;17321;46.312;4.776;2024-02-21T14:35:20;23.67;;;5.35;;
30539;SDS011;17321;46.312;4.776;2024-02-21T14:37:46;14.32;;;5.32;;
30539;SDS011;17321;46.312;4.776;2024-02-21T14:40:13;17.55;;;5.30;;
30539;SDS011;17321;46.312;4.776;2024-02-21T14:42:40;15.00;;;5.53;;
30539;SDS011;17321;46.312;4.776;2024-02-21T14:45:06;7.80;;;5.00;;